sensor_id;sensor_type;location;lat;lon;timestamp;temperature;humidity
8914;DHT22;4492;48.736;9.092;2022-09-27T00:02:13;8.60;99.90
8914;DHT22;4492;48.736;9.092;2022-09-27T00:04:39;8.60;99.90
8914;DHT22;4492;48.736;9.092;2022-09-27T00:07:05;8.60;99.90
8914;DHT22;4492;48.736;9.092;2022-09-27T00:09:31;8.60;99.90
8914;DHT22;4492;48.736;9.092;2022-09-27T00:11:57;8.50;99.90
8914;DHT22;4492;48.736;9.092;2022-09-27T00:14:23;8.50;99.90
8914;DHT22;4492;48.736;9.092;2022-09-27T00:16:48;8.60;99.90
8914;DHT22;4492;48.736;9.092;2022-09-27T00:19:17;8.50;99.90
8914;DHT22;4492;48.736;9.092;2022-09-27T00:21:44;8.50;99.90
8914;DHT22;4492;48.736;9.092;2022-09-27T00:24:14;8.50;99.90
8914;DHT22;4492;48.736;9.092;2022-09-27T00:26:40;8.50;99.90
8914;DHT22;4492;48.736;9.092;2022-09-27T00:29:07;8.50;99.90
8914;DHT22;4492;48.736;9.092;2022-09-27T00:31:33;8.50;99.90
8914;DHT22;4492;48.736;9.092;2022-09-27T00:34:01;8.50;99.90
8914;DHT22;4492;48.736;9.092;2022-09-27T00:36:28;8.50;99.90
8914;DHT22;4492;48.736;9.092;2022-09-27T00:38:55;8.60;99.90
8914;DHT22;4492;48.736;9.092;2022-09-27T00:41:30;8.60;99.90
8914;DHT22;4492;48.736;9.092;2022-09-27T00:43:57;8.50;99.90
8914;DHT22;4492;48.736;9.092;2022-09-27T00:46:39;8.50;99.90
8914;DHT22;4492;48.736;9.092;2022-09-27T00:49:12;8.50;99.90
8914;DHT22;4492;48.736;9.092;2022-09-27T00:51:41;8.50;99.90
8914;DHT22;4492;48.736;9.092;2022-09-27T00:54:11;8.50;99.90
8914;DHT22;4492;48.736;9.092;2022-09-27T00:56:37;8.50;99.90
8914;DHT22;4492;48.736;9.092;2022-09-27T00:59:25;8.50;99.90
8914;DHT22;4492;48.736;9.092;2022-09-27T01:01:51;8.60;99.90
8914;DHT22;4492;48.736;9.092;2022-09-27T01:04:26;8.60;99.90
8914;DHT22;4492;48.736;9.092;2022-09-27T01:06:52;8.60;99.90
8914;DHT22;4492;48.736;9.092;2022-09-27T01:09:18;8.60;99.90
8914;DHT22;4492;48.736;9.092;2022-09-27T01:17:49;8.60;99.90
8914;DHT22;4492;48.736;9.092;2022-09-27T01:26:24;8.60;99.90
8914;DHT22;4492;48.736;9.092;2022-09-27T01:32:06;8.60;99.90
8914;DHT22;4492;48.736;9.092;2022-09-27T01:34:49;8.60;99.90
8914;DHT22;4492;48.736;9.092;2022-09-27T01:37:56;8.50;99.90
8914;DHT22;4492;48.736;9.092;2022-09-27T01:41:07;8.50;99.90
8914;DHT22;4492;48.736;9.092;2022-09-27T01:43:44;8.50;99.90
8914;DHT22;4492;48.736;9.092;2022-09-27T01:46:16;8.60;99.90
8914;DHT22;4492;48.736;9.092;2022-09-27T01:48:46;8.60;99.90
8914;DHT22;4492;48.736;9.092;2022-09-27T01:51:26;8.60;99.90
8914;DHT22;4492;48.736;9.092;2022-09-27T01:53:57;8.70;99.90
8914;DHT22;4492;48.736;9.092;2022-09-27T01:56:53;8.70;99.90
8914;DHT22;4492;48.736;9.092;2022-09-27T01:59:25;8.70;99.90
8914;DHT22;4492;48.736;9.092;2022-09-27T02:01:55;8.70;99.90
8914;DHT22;4492;48.736;9.092;2022-09-27T02:04:27;8.70;99.90
8914;DHT22;4492;48.736;9.092;2022-09-27T02:07:06;8.70;99.90
8914;DHT22;4492;48.736;9.092;2022-09-27T02:09:47;8.70;99.90
8914;DHT22;4492;48.736;9.092;2022-09-27T02:12:17;8.80;99.90
8914;DHT22;4492;48.736;9.092;2022-09-27T02:14:48;8.80;99.90
8914;DHT22;4492;48.736;9.092;2022-09-27T02:22:44;8.80;99.90
8914;DHT22;4492;48.736;9.092;2022-09-27T02:30:56;8.80;99.90
8914;DHT22;4492;48.736;9.092;2022-09-27T02:33:27;8.80;99.90
8914;DHT22;4492;48.736;9.092;2022-09-27T02:35:54;8.70;99.90
8914;DHT22;4492;48.736;9.092;2022-09-27T02:38:20;8.70;99.90
8914;DHT22;4492;48.736;9.092;2022-09-27T02:40:46;8.60;99.90
8914;DHT22;4492;48.736;9.092;2022-09-27T02:43:14;8.50;99.90
8914;DHT22;4492;48.736;9.092;2022-09-27T02:46:20;8.50;99.90
8914;DHT22;4492;48.736;9.092;2022-09-27T02:48:58;8.40;99.90
8914;DHT22;4492;48.736;9.092;2022-09-27T02:51:40;8.30;99.90
8914;DHT22;4492;48.736;9.092;2022-09-27T02:57:12;8.20;99.90
8914;DHT22;4492;48.736;9.092;2022-09-27T02:59:44;8.10;99.90
8914;DHT22;4492;48.736;9.092;2022-09-27T03:02:20;8.00;99.90
8914;DHT22;4492;48.736;9.092;2022-09-27T03:04:54;7.90;99.90
8914;DHT22;4492;48.736;9.092;2022-09-27T03:07:21;7.80;99.90
8914;DHT22;4492;48.736;9.092;2022-09-27T03:09:50;7.80;99.90
8914;DHT22;4492;48.736;9.092;2022-09-27T03:12:18;7.70;99.90
8914;DHT22;4492;48.736;9.092;2022-09-27T03:14:57;7.70;99.90
8914;DHT22;4492;48.736;9.092;2022-09-27T03:17:24;7.70;99.90
8914;DHT22;4492;48.736;9.092;2022-09-27T03:19:49;7.60;99.90
8914;DHT22;4492;48.736;9.092;2022-09-27T03:22:15;7.60;99.90
8914;DHT22;4492;48.736;9.092;2022-09-27T03:24:41;7.60;99.90
8914;DHT22;4492;48.736;9.092;2022-09-27T03:27:06;7.60;99.90
8914;DHT22;4492;48.736;9.092;2022-09-27T03:29:32;7.60;99.90
8914;DHT22;4492;48.736;9.092;2022-09-27T03:31:58;7.60;99.90
8914;DHT22;4492;48.736;9.092;2022-09-27T03:34:23;7.70;99.90
8914;DHT22;4492;48.736;9.092;2022-09-27T03:36:49;7.60;99.90
8914;DHT22;4492;48.736;9.092;2022-09-27T03:39:15;7.70;99.90
8914;DHT22;4492;48.736;9.092;2022-09-27T03:41:40;7.70;99.90
8914;DHT22;4492;48.736;9.092;2022-09-27T03:44:06;7.70;99.90
8914;DHT22;4492;48.736;9.092;2022-09-27T03:46:32;7.70;99.90
8914;DHT22;4492;48.736;9.092;2022-09-27T03:48:58;7.70;99.90
8914;DHT22;4492;48.736;9.092;2022-09-27T03:51:23;7.70;99.90
8914;DHT22;4492;48.736;9.092;2022-09-27T03:53:49;7.70;99.90
8914;DHT22;4492;48.736;9.092;2022-09-27T03:56:15;7.70;99.90
8914;DHT22;4492;48.736;9.092;2022-09-27T03:58:41;7.70;99.90
8914;DHT22;4492;48.736;9.092;2022-09-27T04:01:06;7.70;99.90
8914;DHT22;4492;48.736;9.092;2022-09-27T04:03:32;7.70;99.90
8914;DHT22;4492;48.736;9.092;2022-09-27T04:06:00;7.80;99.90
8914;DHT22;4492;48.736;9.092;2022-09-27T04:08:26;7.70;99.90
8914;DHT22;4492;48.736;9.092;2022-09-27T04:10:51;7.80;99.90
8914;DHT22;4492;48.736;9.092;2022-09-27T04:13:17;7.80;99.90
8914;DHT22;4492;48.736;9.092;2022-09-27T04:15:42;7.80;99.90
8914;DHT22;4492;48.736;9.092;2022-09-27T04:18:08;7.80;99.90
8914;DHT22;4492;48.736;9.092;2022-09-27T04:20:34;7.80;99.90
8914;DHT22;4492;48.736;9.092;2022-09-27T04:23:00;7.90;99.90
8914;DHT22;4492;48.736;9.092;2022-09-27T04:25:26;7.90;99.90
8914;DHT22;4492;48.736;9.092;2022-09-27T04:27:52;7.90;99.90
8914;DHT22;4492;48.736;9.092;2022-09-27T04:30:21;7.90;99.90
8914;DHT22;4492;48.736;9.092;2022-09-27T04:32:47;7.90;99.90
8914;DHT22;4492;48.736;9.092;2022-09-27T04:35:13;7.90;99.90
8914;DHT22;4492;48.736;9.092;2022-09-27T04:37:58;7.90;99.90
8914;DHT22;4492;48.736;9.092;2022-09-27T04:40:24;7.90;99.90
8914;DHT22;4492;48.736;9.092;2022-09-27T04:42:50;7.90;99.90
8914;DHT22;4492;48.736;9.092;2022-09-27T04:45:16;7.80;99.90
8914;DHT22;4492;48.736;9.092;2022-09-27T04:47:47;7.80;99.90
8914;DHT22;4492;48.736;9.092;2022-09-27T04:50:13;7.90;99.90
8914;DHT22;4492;48.736;9.092;2022-09-27T04:52:39;7.90;99.90
8914;DHT22;4492;48.736;9.092;2022-09-27T04:55:06;7.90;99.90
8914;DHT22;4492;48.736;9.092;2022-09-27T04:57:32;7.90;99.90
8914;DHT22;4492;48.736;9.092;2022-09-27T04:59:57;7.90;99.90
8914;DHT22;4492;48.736;9.092;2022-09-27T05:02:25;7.90;99.90
8914;DHT22;4492;48.736;9.092;2022-09-27T05:04:52;7.90;99.90
8914;DHT22;4492;48.736;9.092;2022-09-27T05:07:17;7.90;99.90
8914;DHT22;4492;48.736;9.092;2022-09-27T05:09:44;7.90;99.90
8914;DHT22;4492;48.736;9.092;2022-09-27T05:12:09;7.90;99.90
8914;DHT22;4492;48.736;9.092;2022-09-27T05:14:35;7.90;99.90
8914;DHT22;4492;48.736;9.092;2022-09-27T05:17:01;8.00;99.90
8914;DHT22;4492;48.736;9.092;2022-09-27T05:19:27;8.00;99.90
8914;DHT22;4492;48.736;9.092;2022-09-27T05:21:53;8.00;99.90
8914;DHT22;4492;48.736;9.092;2022-09-27T05:24:18;8.00;99.90
8914;DHT22;4492;48.736;9.092;2022-09-27T05:26:46;8.00;99.90
8914;DHT22;4492;48.736;9.092;2022-09-27T05:29:11;8.00;99.90
8914;DHT22;4492;48.736;9.092;2022-09-27T05:31:37;8.00;99.90
8914;DHT22;4492;48.736;9.092;2022-09-27T05:34:03;8.00;99.90
8914;DHT22;4492;48.736;9.092;2022-09-27T05:36:29;8.00;99.90
8914;DHT22;4492;48.736;9.092;2022-09-27T05:38:55;8.00;99.90
8914;DHT22;4492;48.736;9.092;2022-09-27T05:41:20;8.00;99.90
8914;DHT22;4492;48.736;9.092;2022-09-27T05:43:46;8.10;99.90
8914;DHT22;4492;48.736;9.092;2022-09-27T05:46:11;8.00;99.90
8914;DHT22;4492;48.736;9.092;2022-09-27T05:48:37;8.00;99.90
8914;DHT22;4492;48.736;9.092;2022-09-27T05:51:03;8.10;99.90
8914;DHT22;4492;48.736;9.092;2022-09-27T05:53:28;8.00;99.90
8914;DHT22;4492;48.736;9.092;2022-09-27T05:55:59;8.00;99.90
8914;DHT22;4492;48.736;9.092;2022-09-27T05:58:24;8.00;99.90
8914;DHT22;4492;48.736;9.092;2022-09-27T06:00:50;8.00;99.90
8914;DHT22;4492;48.736;9.092;2022-09-27T06:03:16;8.00;99.90
8914;DHT22;4492;48.736;9.092;2022-09-27T06:05:42;8.00;99.90
8914;DHT22;4492;48.736;9.092;2022-09-27T06:08:10;8.00;99.90
8914;DHT22;4492;48.736;9.092;2022-09-27T06:10:37;8.00;99.90
8914;DHT22;4492;48.736;9.092;2022-09-27T06:13:09;8.00;99.90
8914;DHT22;4492;48.736;9.092;2022-09-27T06:15:36;8.00;99.90
8914;DHT22;4492;48.736;9.092;2022-09-27T06:18:12;8.00;99.90
8914;DHT22;4492;48.736;9.092;2022-09-27T06:20:38;8.10;99.90
8914;DHT22;4492;48.736;9.092;2022-09-27T06:23:10;8.10;99.90
8914;DHT22;4492;48.736;9.092;2022-09-27T06:25:36;8.10;99.90
8914;DHT22;4492;48.736;9.092;2022-09-27T06:28:03;8.10;99.90
8914;DHT22;4492;48.736;9.092;2022-09-27T06:30:29;8.20;99.90
8914;DHT22;4492;48.736;9.092;2022-09-27T06:33:00;8.20;99.90
8914;DHT22;4492;48.736;9.092;2022-09-27T06:35:27;8.30;99.90
8914;DHT22;4492;48.736;9.092;2022-09-27T06:37:53;8.40;99.90
8914;DHT22;4492;48.736;9.092;2022-09-27T06:40:20;8.40;99.90
8914;DHT22;4492;48.736;9.092;2022-09-27T06:42:46;8.50;99.90
8914;DHT22;4492;48.736;9.092;2022-09-27T06:45:12;8.50;99.90
8914;DHT22;4492;48.736;9.092;2022-09-27T06:47:38;8.50;99.90
8914;DHT22;4492;48.736;9.092;2022-09-27T06:50:04;8.50;99.90
8914;DHT22;4492;48.736;9.092;2022-09-27T06:52:34;8.60;99.90
8914;DHT22;4492;48.736;9.092;2022-09-27T06:55:01;8.60;99.90
8914;DHT22;4492;48.736;9.092;2022-09-27T06:57:27;8.70;99.90
8914;DHT22;4492;48.736;9.092;2022-09-27T07:00:12;8.90;99.90
8914;DHT22;4492;48.736;9.092;2022-09-27T07:02:54;9.00;99.90
8914;DHT22;4492;48.736;9.092;2022-09-27T07:05:22;9.00;99.90
8914;DHT22;4492;48.736;9.092;2022-09-27T07:07:48;8.90;99.90
8914;DHT22;4492;48.736;9.092;2022-09-27T07:10:14;8.90;99.90
8914;DHT22;4492;48.736;9.092;2022-09-27T07:12:42;8.90;99.90
8914;DHT22;4492;48.736;9.092;2022-09-27T07:15:09;8.90;99.90
8914;DHT22;4492;48.736;9.092;2022-09-27T07:17:34;8.90;99.90
8914;DHT22;4492;48.736;9.092;2022-09-27T07:20:00;8.90;99.90
8914;DHT22;4492;48.736;9.092;2022-09-27T07:22:26;8.80;99.90
8914;DHT22;4492;48.736;9.092;2022-09-27T07:24:54;8.90;99.90
8914;DHT22;4492;48.736;9.092;2022-09-27T07:27:19;9.10;99.90
8914;DHT22;4492;48.736;9.092;2022-09-27T07:29:45;9.10;99.90
8914;DHT22;4492;48.736;9.092;2022-09-27T07:32:11;9.10;99.90
8914;DHT22;4492;48.736;9.092;2022-09-27T07:34:36;8.90;99.90
8914;DHT22;4492;48.736;9.092;2022-09-27T07:37:02;8.80;99.90
8914;DHT22;4492;48.736;9.092;2022-09-27T07:39:30;8.80;99.90
8914;DHT22;4492;48.736;9.092;2022-09-27T07:41:55;8.80;99.90
8914;DHT22;4492;48.736;9.092;2022-09-27T07:44:21;8.90;99.90
8914;DHT22;4492;48.736;9.092;2022-09-27T07:46:46;9.00;99.90
8914;DHT22;4492;48.736;9.092;2022-09-27T07:49:12;9.10;99.90
8914;DHT22;4492;48.736;9.092;2022-09-27T07:51:37;9.20;99.90
8914;DHT22;4492;48.736;9.092;2022-09-27T07:54:03;9.30;99.90
8914;DHT22;4492;48.736;9.092;2022-09-27T07:56:31;9.40;99.90
8914;DHT22;4492;48.736;9.092;2022-09-27T07:58:57;9.40;99.90
8914;DHT22;4492;48.736;9.092;2022-09-27T08:01:23;9.50;99.90
8914;DHT22;4492;48.736;9.092;2022-09-27T08:03:49;9.60;99.90
8914;DHT22;4492;48.736;9.092;2022-09-27T08:06:14;9.70;99.90
8914;DHT22;4492;48.736;9.092;2022-09-27T08:08:40;9.80;99.90
8914;DHT22;4492;48.736;9.092;2022-09-27T08:11:14;10.00;99.90
8914;DHT22;4492;48.736;9.092;2022-09-27T08:13:41;9.90;99.90
8914;DHT22;4492;48.736;9.092;2022-09-27T08:16:07;9.90;99.90
8914;DHT22;4492;48.736;9.092;2022-09-27T08:18:32;10.00;99.90
8914;DHT22;4492;48.736;9.092;2022-09-27T08:20:59;10.00;99.90
8914;DHT22;4492;48.736;9.092;2022-09-27T08:23:25;10.20;99.90
8914;DHT22;4492;48.736;9.092;2022-09-27T08:25:54;10.40;99.90
8914;DHT22;4492;48.736;9.092;2022-09-27T08:28:21;10.60;99.90
8914;DHT22;4492;48.736;9.092;2022-09-27T08:30:48;10.80;99.90
8914;DHT22;4492;48.736;9.092;2022-09-27T08:33:14;10.90;99.90
8914;DHT22;4492;48.736;9.092;2022-09-27T08:35:39;10.80;99.90
8914;DHT22;4492;48.736;9.092;2022-09-27T08:38:05;10.70;99.90
8914;DHT22;4492;48.736;9.092;2022-09-27T08:43:22;10.20;99.90
8914;DHT22;4492;48.736;9.092;2022-09-27T08:46:14;10.00;99.90
8914;DHT22;4492;48.736;9.092;2022-09-27T08:48:48;9.90;99.90
8914;DHT22;4492;48.736;9.092;2022-09-27T08:51:25;9.70;99.90
8914;DHT22;4492;48.736;9.092;2022-09-27T08:54:07;9.60;99.90
8914;DHT22;4492;48.736;9.092;2022-09-27T08:56:36;9.70;99.90
8914;DHT22;4492;48.736;9.092;2022-09-27T08:59:14;10.00;99.90
8914;DHT22;4492;48.736;9.092;2022-09-27T09:01:40;10.20;99.90
8914;DHT22;4492;48.736;9.092;2022-09-27T09:04:08;10.50;99.90
8914;DHT22;4492;48.736;9.092;2022-09-27T09:06:46;10.70;99.90
8914;DHT22;4492;48.736;9.092;2022-09-27T09:12:50;11.00;99.90
8914;DHT22;4492;48.736;9.092;2022-09-27T09:21:04;11.80;99.90
8914;DHT22;4492;48.736;9.092;2022-09-27T09:26:55;12.10;99.90
8914;DHT22;4492;48.736;9.092;2022-09-27T09:34:34;11.70;99.90
8914;DHT22;4492;48.736;9.092;2022-09-27T09:37:12;11.70;99.90
8914;DHT22;4492;48.736;9.092;2022-09-27T09:39:55;11.80;99.90
8914;DHT22;4492;48.736;9.092;2022-09-27T09:42:27;11.80;99.90
8914;DHT22;4492;48.736;9.092;2022-09-27T09:45:18;11.80;99.90
8914;DHT22;4492;48.736;9.092;2022-09-27T09:47:58;11.80;99.90
8914;DHT22;4492;48.736;9.092;2022-09-27T09:50:34;11.80;99.90
8914;DHT22;4492;48.736;9.092;2022-09-27T09:53:17;11.70;99.90
8914;DHT22;4492;48.736;9.092;2022-09-27T09:55:49;11.90;99.90
8914;DHT22;4492;48.736;9.092;2022-09-27T09:58:30;11.70;99.90
8914;DHT22;4492;48.736;9.092;2022-09-27T10:01:12;11.90;99.90
8914;DHT22;4492;48.736;9.092;2022-09-27T10:03:38;11.90;99.90
8914;DHT22;4492;48.736;9.092;2022-09-27T10:06:05;11.90;99.90
8914;DHT22;4492;48.736;9.092;2022-09-27T10:08:30;11.80;99.90
8914;DHT22;4492;48.736;9.092;2022-09-27T10:10:57;12.10;99.90
8914;DHT22;4492;48.736;9.092;2022-09-27T10:13:22;12.40;99.90
8914;DHT22;4492;48.736;9.092;2022-09-27T10:16:07;12.80;99.90
8914;DHT22;4492;48.736;9.092;2022-09-27T10:18:36;12.90;99.70
8914;DHT22;4492;48.736;9.092;2022-09-27T10:26:30;12.10;99.90
8914;DHT22;4492;48.736;9.092;2022-09-27T10:28:56;11.70;99.90
8914;DHT22;4492;48.736;9.092;2022-09-27T10:31:22;11.50;99.90
8914;DHT22;4492;48.736;9.092;2022-09-27T10:33:56;11.40;99.90
8914;DHT22;4492;48.736;9.092;2022-09-27T10:36:42;11.60;99.90
8914;DHT22;4492;48.736;9.092;2022-09-27T10:39:20;12.00;99.90
8914;DHT22;4492;48.736;9.092;2022-09-27T10:41:46;12.40;99.90
8914;DHT22;4492;48.736;9.092;2022-09-27T10:46:54;12.40;99.90
8914;DHT22;4492;48.736;9.092;2022-09-27T10:49:29;12.40;99.90
8914;DHT22;4492;48.736;9.092;2022-09-27T10:51:59;12.40;99.90
8914;DHT22;4492;48.736;9.092;2022-09-27T10:54:28;12.40;99.90
8914;DHT22;4492;48.736;9.092;2022-09-27T10:57:00;12.20;99.90
8914;DHT22;4492;48.736;9.092;2022-09-27T10:59:30;12.20;99.90
8914;DHT22;4492;48.736;9.092;2022-09-27T11:01:58;12.20;99.90
8914;DHT22;4492;48.736;9.092;2022-09-27T11:04:29;12.00;99.90
8914;DHT22;4492;48.736;9.092;2022-09-27T11:07:13;11.90;99.90
8914;DHT22;4492;48.736;9.092;2022-09-27T11:09:48;11.90;99.90
8914;DHT22;4492;48.736;9.092;2022-09-27T11:12:15;11.80;99.90
8914;DHT22;4492;48.736;9.092;2022-09-27T11:15:23;11.80;99.90
8914;DHT22;4492;48.736;9.092;2022-09-27T11:20:30;12.00;99.90
8914;DHT22;4492;48.736;9.092;2022-09-27T11:23:16;12.10;99.90
8914;DHT22;4492;48.736;9.092;2022-09-27T11:34:33;12.00;99.90
8914;DHT22;4492;48.736;9.092;2022-09-27T11:37:10;12.00;99.90
8914;DHT22;4492;48.736;9.092;2022-09-27T11:40:02;12.00;99.90
8914;DHT22;4492;48.736;9.092;2022-09-27T11:48:14;12.00;99.90
8914;DHT22;4492;48.736;9.092;2022-09-27T11:50:59;12.20;99.90
8914;DHT22;4492;48.736;9.092;2022-09-27T11:53:47;12.20;99.90
8914;DHT22;4492;48.736;9.092;2022-09-27T11:56:22;12.40;99.90
8914;DHT22;4492;48.736;9.092;2022-09-27T11:59:15;12.70;99.90
8914;DHT22;4492;48.736;9.092;2022-09-27T12:01:55;12.80;99.90
8914;DHT22;4492;48.736;9.092;2022-09-27T12:04:48;13.00;99.90
8914;DHT22;4492;48.736;9.092;2022-09-27T12:10:07;12.40;99.90
8914;DHT22;4492;48.736;9.092;2022-09-27T12:12:34;12.10;99.90
8914;DHT22;4492;48.736;9.092;2022-09-27T12:17:44;11.60;99.90
8914;DHT22;4492;48.736;9.092;2022-09-27T12:20:20;11.50;99.90
8914;DHT22;4492;48.736;9.092;2022-09-27T12:23:06;11.40;99.90
8914;DHT22;4492;48.736;9.092;2022-09-27T12:25:36;11.40;99.90
8914;DHT22;4492;48.736;9.092;2022-09-27T12:28:52;11.50;99.90
8914;DHT22;4492;48.736;9.092;2022-09-27T12:31:03;11.70;99.90
8914;DHT22;4492;48.736;9.092;2022-09-27T12:33:38;11.70;99.90
8914;DHT22;4492;48.736;9.092;2022-09-27T12:36:11;11.50;99.90
8914;DHT22;4492;48.736;9.092;2022-09-27T12:38:57;11.40;99.90
8914;DHT22;4492;48.736;9.092;2022-09-27T12:41:29;11.30;99.90
8914;DHT22;4492;48.736;9.092;2022-09-27T12:43:56;11.30;99.90
8914;DHT22;4492;48.736;9.092;2022-09-27T12:49:53;11.50;99.90
8914;DHT22;4492;48.736;9.092;2022-09-27T12:52:27;11.50;99.90
8914;DHT22;4492;48.736;9.092;2022-09-27T12:55:17;11.40;99.90
8914;DHT22;4492;48.736;9.092;2022-09-27T13:01:03;11.50;99.90
8914;DHT22;4492;48.736;9.092;2022-09-27T13:06:23;11.60;99.90
8914;DHT22;4492;48.736;9.092;2022-09-27T13:12:17;11.50;99.90
8914;DHT22;4492;48.736;9.092;2022-09-27T13:15:03;11.30;99.90
8914;DHT22;4492;48.736;9.092;2022-09-27T13:17:47;11.30;99.90
8914;DHT22;4492;48.736;9.092;2022-09-27T13:23:02;11.10;99.90
8914;DHT22;4492;48.736;9.092;2022-09-27T13:25:51;11.10;99.90
8914;DHT22;4492;48.736;9.092;2022-09-27T13:31:06;11.30;99.90
8914;DHT22;4492;48.736;9.092;2022-09-27T13:47:38;11.50;99.90
8914;DHT22;4492;48.736;9.092;2022-09-27T13:50:25;11.50;99.90
8914;DHT22;4492;48.736;9.092;2022-09-27T13:53:11;11.40;99.90
8914;DHT22;4492;48.736;9.092;2022-09-27T13:55:47;11.40;99.90
8914;DHT22;4492;48.736;9.092;2022-09-27T14:00:59;11.30;99.90
8914;DHT22;4492;48.736;9.092;2022-09-27T14:03:36;11.20;99.90
8914;DHT22;4492;48.736;9.092;2022-09-27T14:06:04;11.10;99.90
8914;DHT22;4492;48.736;9.092;2022-09-27T14:08:33;11.00;99.90
8914;DHT22;4492;48.736;9.092;2022-09-27T14:11:02;10.90;99.90
8914;DHT22;4492;48.736;9.092;2022-09-27T14:13:29;10.90;99.90
8914;DHT22;4492;48.736;9.092;2022-09-27T14:15:58;10.60;99.90
8914;DHT22;4492;48.736;9.092;2022-09-27T14:18:24;10.30;99.90
8914;DHT22;4492;48.736;9.092;2022-09-27T14:20:51;10.00;99.90
8914;DHT22;4492;48.736;9.092;2022-09-27T14:23:20;9.70;99.90
8914;DHT22;4492;48.736;9.092;2022-09-27T14:25:49;9.50;99.90
8914;DHT22;4492;48.736;9.092;2022-09-27T14:28:20;9.30;99.90
8914;DHT22;4492;48.736;9.092;2022-09-27T14:30:46;9.10;99.90
8914;DHT22;4492;48.736;9.092;2022-09-27T14:33:30;9.10;99.90
8914;DHT22;4492;48.736;9.092;2022-09-27T14:35:56;9.10;99.90
8914;DHT22;4492;48.736;9.092;2022-09-27T14:38:41;9.30;99.90
8914;DHT22;4492;48.736;9.092;2022-09-27T14:41:07;9.50;99.90
8914;DHT22;4492;48.736;9.092;2022-09-27T14:43:34;9.70;99.90
8914;DHT22;4492;48.736;9.092;2022-09-27T14:46:05;9.80;99.90
8914;DHT22;4492;48.736;9.092;2022-09-27T14:51:02;9.90;99.90
8914;DHT22;4492;48.736;9.092;2022-09-27T14:53:33;9.90;99.90
8914;DHT22;4492;48.736;9.092;2022-09-27T14:56:00;10.20;99.90
8914;DHT22;4492;48.736;9.092;2022-09-27T14:58:27;10.50;99.90
8914;DHT22;4492;48.736;9.092;2022-09-27T15:00:54;10.60;99.90
8914;DHT22;4492;48.736;9.092;2022-09-27T15:03:26;10.70;99.90
8914;DHT22;4492;48.736;9.092;2022-09-27T15:05:54;10.90;99.90
8914;DHT22;4492;48.736;9.092;2022-09-27T15:08:22;11.00;99.90
8914;DHT22;4492;48.736;9.092;2022-09-27T15:10:49;10.90;99.90
8914;DHT22;4492;48.736;9.092;2022-09-27T15:13:16;10.80;99.90
8914;DHT22;4492;48.736;9.092;2022-09-27T15:15:44;10.70;99.90
8914;DHT22;4492;48.736;9.092;2022-09-27T15:20:58;10.40;99.90
8914;DHT22;4492;48.736;9.092;2022-09-27T15:23:29;10.40;99.90
8914;DHT22;4492;48.736;9.092;2022-09-27T15:26:13;10.50;99.90
8914;DHT22;4492;48.736;9.092;2022-09-27T15:28:48;10.60;99.90
8914;DHT22;4492;48.736;9.092;2022-09-27T15:31:14;10.70;99.90
8914;DHT22;4492;48.736;9.092;2022-09-27T15:33:41;10.70;99.90
8914;DHT22;4492;48.736;9.092;2022-09-27T15:36:09;10.70;99.90
8914;DHT22;4492;48.736;9.092;2022-09-27T15:38:43;10.60;99.90
8914;DHT22;4492;48.736;9.092;2022-09-27T15:41:16;10.70;99.90
8914;DHT22;4492;48.736;9.092;2022-09-27T15:43:46;10.60;99.90
8914;DHT22;4492;48.736;9.092;2022-09-27T15:46:40;10.70;99.90
8914;DHT22;4492;48.736;9.092;2022-09-27T15:51:46;10.70;99.90
8914;DHT22;4492;48.736;9.092;2022-09-27T15:54:12;10.70;99.90
8914;DHT22;4492;48.736;9.092;2022-09-27T15:56:40;10.70;99.90
8914;DHT22;4492;48.736;9.092;2022-09-27T15:59:15;10.60;99.90
8914;DHT22;4492;48.736;9.092;2022-09-27T16:01:42;10.60;99.90
8914;DHT22;4492;48.736;9.092;2022-09-27T16:04:08;10.50;99.90
8914;DHT22;4492;48.736;9.092;2022-09-27T16:06:34;10.50;99.90
8914;DHT22;4492;48.736;9.092;2022-09-27T16:08:59;10.40;99.90
8914;DHT22;4492;48.736;9.092;2022-09-27T16:11:25;10.40;99.90
8914;DHT22;4492;48.736;9.092;2022-09-27T16:13:50;10.30;99.90
8914;DHT22;4492;48.736;9.092;2022-09-27T16:16:19;10.30;99.90
8914;DHT22;4492;48.736;9.092;2022-09-27T16:18:46;10.30;99.90
8914;DHT22;4492;48.736;9.092;2022-09-27T16:21:12;10.20;99.90
8914;DHT22;4492;48.736;9.092;2022-09-27T16:23:38;10.10;99.90
8914;DHT22;4492;48.736;9.092;2022-09-27T16:26:04;10.00;99.90
8914;DHT22;4492;48.736;9.092;2022-09-27T16:28:32;9.90;99.90
8914;DHT22;4492;48.736;9.092;2022-09-27T16:31:02;9.90;99.90
8914;DHT22;4492;48.736;9.092;2022-09-27T16:33:29;9.80;99.90
8914;DHT22;4492;48.736;9.092;2022-09-27T16:35:56;9.80;99.90
8914;DHT22;4492;48.736;9.092;2022-09-27T16:38:22;9.80;99.90
8914;DHT22;4492;48.736;9.092;2022-09-27T16:40:51;9.80;99.90
8914;DHT22;4492;48.736;9.092;2022-09-27T16:43:17;9.70;99.90
8914;DHT22;4492;48.736;9.092;2022-09-27T16:45:44;9.70;99.90
8914;DHT22;4492;48.736;9.092;2022-09-27T16:48:10;9.70;99.90
8914;DHT22;4492;48.736;9.092;2022-09-27T16:50:36;9.50;99.90
8914;DHT22;4492;48.736;9.092;2022-09-27T16:53:20;9.60;99.90
8914;DHT22;4492;48.736;9.092;2022-09-27T16:55:46;9.50;99.90
8914;DHT22;4492;48.736;9.092;2022-09-27T16:58:11;9.40;99.90
8914;DHT22;4492;48.736;9.092;2022-09-27T17:00:37;9.40;99.90
8914;DHT22;4492;48.736;9.092;2022-09-27T17:03:03;9.30;99.90
8914;DHT22;4492;48.736;9.092;2022-09-27T17:05:28;9.30;99.90
8914;DHT22;4492;48.736;9.092;2022-09-27T17:07:56;9.30;99.90
8914;DHT22;4492;48.736;9.092;2022-09-27T17:10:22;9.20;99.90
8914;DHT22;4492;48.736;9.092;2022-09-27T17:12:48;9.20;99.90
8914;DHT22;4492;48.736;9.092;2022-09-27T17:15:14;9.20;99.90
8914;DHT22;4492;48.736;9.092;2022-09-27T17:17:40;9.10;99.90
8914;DHT22;4492;48.736;9.092;2022-09-27T17:20:06;9.10;99.90
8914;DHT22;4492;48.736;9.092;2022-09-27T17:22:32;9.00;99.90
8914;DHT22;4492;48.736;9.092;2022-09-27T17:24:57;9.00;99.90
8914;DHT22;4492;48.736;9.092;2022-09-27T17:27:24;9.00;99.90
8914;DHT22;4492;48.736;9.092;2022-09-27T17:29:53;9.00;99.90
8914;DHT22;4492;48.736;9.092;2022-09-27T17:32:18;8.90;99.90
8914;DHT22;4492;48.736;9.092;2022-09-27T17:34:49;8.90;99.90
8914;DHT22;4492;48.736;9.092;2022-09-27T17:37:15;8.90;99.90
8914;DHT22;4492;48.736;9.092;2022-09-27T17:39:40;8.80;99.90
8914;DHT22;4492;48.736;9.092;2022-09-27T17:42:06;8.70;99.90
8914;DHT22;4492;48.736;9.092;2022-09-27T17:44:32;8.60;99.90
8914;DHT22;4492;48.736;9.092;2022-09-27T17:46:57;8.60;99.90
8914;DHT22;4492;48.736;9.092;2022-09-27T17:49:41;8.50;99.90
8914;DHT22;4492;48.736;9.092;2022-09-27T17:52:25;8.50;99.90
8914;DHT22;4492;48.736;9.092;2022-09-27T17:54:51;8.50;99.90
8914;DHT22;4492;48.736;9.092;2022-09-27T17:57:20;8.50;99.90
8914;DHT22;4492;48.736;9.092;2022-09-27T17:59:45;8.40;99.90
8914;DHT22;4492;48.736;9.092;2022-09-27T18:02:11;8.40;99.90
8914;DHT22;4492;48.736;9.092;2022-09-27T18:04:37;8.40;99.90
8914;DHT22;4492;48.736;9.092;2022-09-27T18:07:02;8.30;99.90
8914;DHT22;4492;48.736;9.092;2022-09-27T18:09:28;8.20;99.90
8914;DHT22;4492;48.736;9.092;2022-09-27T18:11:53;8.20;99.90
8914;DHT22;4492;48.736;9.092;2022-09-27T18:14:21;8.10;99.90
8914;DHT22;4492;48.736;9.092;2022-09-27T18:16:47;8.10;99.90
8914;DHT22;4492;48.736;9.092;2022-09-27T18:19:15;8.00;99.90
8914;DHT22;4492;48.736;9.092;2022-09-27T18:21:41;8.00;99.90
8914;DHT22;4492;48.736;9.092;2022-09-27T18:24:06;8.00;99.90
8914;DHT22;4492;48.736;9.092;2022-09-27T18:26:33;8.00;99.90
8914;DHT22;4492;48.736;9.092;2022-09-27T18:29:14;8.00;99.90
8914;DHT22;4492;48.736;9.092;2022-09-27T18:31:41;7.90;99.90
8914;DHT22;4492;48.736;9.092;2022-09-27T18:34:07;7.90;99.90
8914;DHT22;4492;48.736;9.092;2022-09-27T18:36:32;7.80;99.90